sensor_id;sensor_type;location;lat;lon;timestamp;P1;durP1;ratioP1;P2;durP2;ratioP2
5245;SDS011;54412;51.206;6.888;2023-09-30T00:02:15;9.60;;;4.87;;
5245;SDS011;54412;51.206;6.888;2023-09-30T00:04:40;13.00;;;4.40;;
5245;SDS011;54412;51.206;6.888;2023-09-30T00:07:06;12.50;;;5.40;;
5245;SDS011;54412;51.206;6.888;2023-09-30T00:09:32;7.17;;;4.20;;
5245;SDS011;54412;51.206;6.888;2023-09-30T00:11:58;7.63;;;4.20;;
5245;SDS011;54412;51.206;6.888;2023-09-30T00:14:24;25.30;;;5.10;;
5245;SDS011;54412;51.206;6.888;2023-09-30T00:16:50;12.93;;;4.67;;
5245;SDS011;54412;51.206;6.888;2023-09-30T00:19:16;7.10;;;4.20;;
5245;SDS011;54412;51.206;6.888;2023-09-30T00:21:42;10.20;;;4.40;;
5245;SDS011;54412;51.206;6.888;2023-09-30T00:24:07;9.13;;;4.43;;
5245;SDS011;54412;51.206;6.888;2023-09-30T00:26:34;10.73;;;4.90;;
5245;SDS011;54412;51.206;6.888;2023-09-30T00:28:59;13.77;;;4.47;;
5245;SDS011;54412;51.206;6.888;2023-09-30T00:31:25;10.43;;;4.40;;
5245;SDS011;54412;51.206;6.888;2023-09-30T00:33:51;9.73;;;5.20;;
5245;SDS011;54412;51.206;6.888;2023-09-30T00:36:16;12.40;;;4.70;;
5245;SDS011;54412;51.206;6.888;2023-09-30T00:38:42;11.20;;;4.27;;
5245;SDS011;54412;51.206;6.888;2023-09-30T00:41:08;9.77;;;4.33;;
5245;SDS011;54412;51.206;6.888;2023-09-30T00:43:33;13.20;;;5.40;;
5245;SDS011;54412;51.206;6.888;2023-09-30T00:46:04;20.43;;;4.30;;
5245;SDS011;54412;51.206;6.888;2023-09-30T00:48:51;12.57;;;4.60;;
5245;SDS011;54412;51.206;6.888;2023-09-30T00:51:19;12.90;;;4.77;;
5245;SDS011;54412;51.206;6.888;2023-09-30T00:53:46;8.47;;;4.37;;
5245;SDS011;54412;51.206;6.888;2023-09-30T00:56:12;12.90;;;4.90;;
5245;SDS011;54412;51.206;6.888;2023-09-30T00:58:38;10.33;;;4.83;;
5245;SDS011;54412;51.206;6.888;2023-09-30T01:01:05;17.63;;;5.00;;
5245;SDS011;54412;51.206;6.888;2023-09-30T01:03:31;14.40;;;5.60;;
5245;SDS011;54412;51.206;6.888;2023-09-30T01:05:57;10.37;;;4.80;;
5245;SDS011;54412;51.206;6.888;2023-09-30T01:08:23;13.63;;;6.00;;
5245;SDS011;54412;51.206;6.888;2023-09-30T01:10:49;18.33;;;5.90;;
5245;SDS011;54412;51.206;6.888;2023-09-30T01:13:15;8.30;;;4.17;;
5245;SDS011;54412;51.206;6.888;2023-09-30T01:15:41;8.97;;;4.47;;
5245;SDS011;54412;51.206;6.888;2023-09-30T01:18:07;12.00;;;5.97;;
5245;SDS011;54412;51.206;6.888;2023-09-30T01:20:32;12.50;;;4.80;;
5245;SDS011;54412;51.206;6.888;2023-09-30T01:22:58;15.40;;;6.13;;
5245;SDS011;54412;51.206;6.888;2023-09-30T01:25:24;14.27;;;6.17;;
5245;SDS011;54412;51.206;6.888;2023-09-30T01:27:50;16.67;;;5.90;;
5245;SDS011;54412;51.206;6.888;2023-09-30T01:30:16;13.57;;;5.43;;
5245;SDS011;54412;51.206;6.888;2023-09-30T01:32:43;9.67;;;5.10;;
5245;SDS011;54412;51.206;6.888;2023-09-30T01:35:09;25.73;;;5.43;;
5245;SDS011;54412;51.206;6.888;2023-09-30T01:37:35;10.67;;;4.87;;
5245;SDS011;54412;51.206;6.888;2023-09-30T01:40:01;11.70;;;5.03;;
5245;SDS011;54412;51.206;6.888;2023-09-30T01:42:35;12.03;;;4.27;;
5245;SDS011;54412;51.206;6.888;2023-09-30T01:45:01;13.97;;;5.30;;
5245;SDS011;54412;51.206;6.888;2023-09-30T01:47:27;17.00;;;5.07;;
5245;SDS011;54412;51.206;6.888;2023-09-30T01:49:53;9.30;;;3.87;;
5245;SDS011;54412;51.206;6.888;2023-09-30T01:52:19;8.10;;;4.50;;
5245;SDS011;54412;51.206;6.888;2023-09-30T01:54:44;12.07;;;5.53;;
5245;SDS011;54412;51.206;6.888;2023-09-30T01:57:10;10.83;;;4.90;;
5245;SDS011;54412;51.206;6.888;2023-09-30T01:59:36;12.00;;;4.90;;
5245;SDS011;54412;51.206;6.888;2023-09-30T02:02:01;11.07;;;4.90;;
5245;SDS011;54412;51.206;6.888;2023-09-30T02:04:27;15.10;;;5.30;;
5245;SDS011;54412;51.206;6.888;2023-09-30T02:06:54;10.50;;;5.07;;
5245;SDS011;54412;51.206;6.888;2023-09-30T02:09:20;12.17;;;5.03;;
5245;SDS011;54412;51.206;6.888;2023-09-30T02:11:45;9.93;;;4.57;;
5245;SDS011;54412;51.206;6.888;2023-09-30T02:14:11;12.97;;;5.50;;
5245;SDS011;54412;51.206;6.888;2023-09-30T02:16:40;14.67;;;5.50;;
5245;SDS011;54412;51.206;6.888;2023-09-30T02:19:05;6.50;;;4.10;;
5245;SDS011;54412;51.206;6.888;2023-09-30T02:21:31;11.80;;;4.97;;
5245;SDS011;54412;51.206;6.888;2023-09-30T02:23:57;9.40;;;5.10;;
5245;SDS011;54412;51.206;6.888;2023-09-30T02:26:23;9.40;;;4.60;;
5245;SDS011;54412;51.206;6.888;2023-09-30T02:28:51;8.37;;;4.37;;
5245;SDS011;54412;51.206;6.888;2023-09-30T02:31:18;9.30;;;4.77;;
5245;SDS011;54412;51.206;6.888;2023-09-30T02:33:44;10.03;;;4.60;;
5245;SDS011;54412;51.206;6.888;2023-09-30T02:36:09;9.40;;;4.93;;
5245;SDS011;54412;51.206;6.888;2023-09-30T02:38:35;8.43;;;5.50;;
5245;SDS011;54412;51.206;6.888;2023-09-30T02:41:02;9.07;;;4.80;;
5245;SDS011;54412;51.206;6.888;2023-09-30T02:43:28;9.40;;;5.40;;
5245;SDS011;54412;51.206;6.888;2023-09-30T02:45:54;15.57;;;5.37;;
5245;SDS011;54412;51.206;6.888;2023-09-30T02:48:20;15.53;;;5.43;;
5245;SDS011;54412;51.206;6.888;2023-09-30T02:50:46;10.97;;;5.53;;
5245;SDS011;54412;51.206;6.888;2023-09-30T02:53:12;12.70;;;4.90;;
5245;SDS011;54412;51.206;6.888;2023-09-30T02:55:38;10.07;;;4.60;;
5245;SDS011;54412;51.206;6.888;2023-09-30T02:58:06;11.87;;;4.90;;
5245;SDS011;54412;51.206;6.888;2023-09-30T03:00:35;9.20;;;4.93;;
5245;SDS011;54412;51.206;6.888;2023-09-30T03:03:02;10.77;;;5.13;;
5245;SDS011;54412;51.206;6.888;2023-09-30T03:05:29;14.70;;;6.27;;
5245;SDS011;54412;51.206;6.888;2023-09-30T03:07:58;15.83;;;5.40;;
5245;SDS011;54412;51.206;6.888;2023-09-30T03:10:26;4.73;;;4.23;;
5245;SDS011;54412;51.206;6.888;2023-09-30T03:12:52;9.20;;;4.50;;
5245;SDS011;54412;51.206;6.888;2023-09-30T03:15:19;16.43;;;5.40;;
5245;SDS011;54412;51.206;6.888;2023-09-30T03:17:45;11.30;;;4.93;;
5245;SDS011;54412;51.206;6.888;2023-09-30T03:20:11;13.20;;;5.23;;
5245;SDS011;54412;51.206;6.888;2023-09-30T03:22:39;11.30;;;4.70;;
5245;SDS011;54412;51.206;6.888;2023-09-30T03:25:06;10.63;;;5.10;;
5245;SDS011;54412;51.206;6.888;2023-09-30T03:27:34;12.30;;;5.13;;
5245;SDS011;54412;51.206;6.888;2023-09-30T03:30:00;9.93;;;5.00;;
5245;SDS011;54412;51.206;6.888;2023-09-30T03:32:31;12.20;;;5.17;;
5245;SDS011;54412;51.206;6.888;2023-09-30T03:34:58;9.30;;;5.40;;
5245;SDS011;54412;51.206;6.888;2023-09-30T03:37:26;8.77;;;5.70;;
5245;SDS011;54412;51.206;6.888;2023-09-30T03:39:55;12.43;;;4.80;;
5245;SDS011;54412;51.206;6.888;2023-09-30T03:42:21;20.63;;;4.93;;
5245;SDS011;54412;51.206;6.888;2023-09-30T03:44:47;14.80;;;4.90;;
5245;SDS011;54412;51.206;6.888;2023-09-30T03:47:16;13.03;;;5.70;;
5245;SDS011;54412;51.206;6.888;2023-09-30T03:49:42;11.53;;;5.10;;
5245;SDS011;54412;51.206;6.888;2023-09-30T03:52:08;8.73;;;5.77;;
5245;SDS011;54412;51.206;6.888;2023-09-30T03:54:38;11.07;;;5.10;;
5245;SDS011;54412;51.206;6.888;2023-09-30T03:57:06;9.57;;;5.87;;
5245;SDS011;54412;51.206;6.888;2023-09-30T03:59:32;12.20;;;5.17;;
5245;SDS011;54412;51.206;6.888;2023-09-30T04:01:58;12.43;;;5.20;;
5245;SDS011;54412;51.206;6.888;2023-09-30T04:04:24;12.80;;;4.80;;
5245;SDS011;54412;51.206;6.888;2023-09-30T04:06:51;8.93;;;4.63;;
5245;SDS011;54412;51.206;6.888;2023-09-30T04:09:16;14.93;;;5.83;;
5245;SDS011;54412;51.206;6.888;2023-09-30T04:11:43;14.63;;;5.10;;
5245;SDS011;54412;51.206;6.888;2023-09-30T04:14:09;14.70;;;5.70;;
5245;SDS011;54412;51.206;6.888;2023-09-30T04:16:35;8.20;;;4.70;;
5245;SDS011;54412;51.206;6.888;2023-09-30T04:19:02;12.80;;;5.30;;
5245;SDS011;54412;51.206;6.888;2023-09-30T04:21:29;13.10;;;5.87;;
5245;SDS011;54412;51.206;6.888;2023-09-30T04:23:59;14.57;;;6.40;;
5245;SDS011;54412;51.206;6.888;2023-09-30T04:26:25;14.10;;;6.37;;
5245;SDS011;54412;51.206;6.888;2023-09-30T04:28:52;11.87;;;6.17;;
5245;SDS011;54412;51.206;6.888;2023-09-30T04:31:18;13.00;;;5.40;;
5245;SDS011;54412;51.206;6.888;2023-09-30T04:33:46;10.33;;;6.00;;
5245;SDS011;54412;51.206;6.888;2023-09-30T04:36:12;18.07;;;7.40;;
5245;SDS011;54412;51.206;6.888;2023-09-30T04:38:38;11.47;;;6.60;;
5245;SDS011;54412;51.206;6.888;2023-09-30T04:41:03;12.80;;;6.27;;
5245;SDS011;54412;51.206;6.888;2023-09-30T04:43:32;8.83;;;5.70;;
5245;SDS011;54412;51.206;6.888;2023-09-30T04:45:59;24.33;;;7.83;;
5245;SDS011;54412;51.206;6.888;2023-09-30T04:48:25;16.60;;;7.33;;
5245;SDS011;54412;51.206;6.888;2023-09-30T04:50:51;13.97;;;6.50;;
5245;SDS011;54412;51.206;6.888;2023-09-30T04:53:17;11.53;;;6.00;;
5245;SDS011;54412;51.206;6.888;2023-09-30T04:55:44;11.63;;;6.27;;
5245;SDS011;54412;51.206;6.888;2023-09-30T04:58:10;13.93;;;6.73;;
5245;SDS011;54412;51.206;6.888;2023-09-30T05:00:36;11.40;;;6.70;;
5245;SDS011;54412;51.206;6.888;2023-09-30T05:03:02;9.40;;;5.43;;
5245;SDS011;54412;51.206;6.888;2023-09-30T05:05:30;10.00;;;5.60;;
5245;SDS011;54412;51.206;6.888;2023-09-30T05:07:56;13.30;;;6.53;;
5245;SDS011;54412;51.206;6.888;2023-09-30T05:10:22;12.70;;;6.37;;
5245;SDS011;54412;51.206;6.888;2023-09-30T05:12:49;11.30;;;6.60;;
5245;SDS011;54412;51.206;6.888;2023-09-30T05:15:19;17.10;;;7.00;;
5245;SDS011;54412;51.206;6.888;2023-09-30T05:17:46;19.07;;;6.77;;
5245;SDS011;54412;51.206;6.888;2023-09-30T05:20:13;12.23;;;5.80;;
5245;SDS011;54412;51.206;6.888;2023-09-30T05:22:42;10.43;;;5.87;;
5245;SDS011;54412;51.206;6.888;2023-09-30T05:25:14;16.17;;;7.37;;
5245;SDS011;54412;51.206;6.888;2023-09-30T05:27:41;11.77;;;6.23;;
5245;SDS011;54412;51.206;6.888;2023-09-30T05:30:08;12.90;;;6.47;;
5245;SDS011;54412;51.206;6.888;2023-09-30T05:32:36;15.40;;;6.90;;
5245;SDS011;54412;51.206;6.888;2023-09-30T05:35:04;15.87;;;6.80;;
5245;SDS011;54412;51.206;6.888;2023-09-30T05:37:31;17.90;;;6.83;;
5245;SDS011;54412;51.206;6.888;2023-09-30T05:39:56;12.43;;;7.13;;
5245;SDS011;54412;51.206;6.888;2023-09-30T05:42:22;16.07;;;8.30;;
5245;SDS011;54412;51.206;6.888;2023-09-30T05:44:48;10.70;;;6.63;;
5245;SDS011;54412;51.206;6.888;2023-09-30T05:47:14;14.77;;;7.53;;
5245;SDS011;54412;51.206;6.888;2023-09-30T05:49:40;13.37;;;7.20;;
5245;SDS011;54412;51.206;6.888;2023-09-30T05:52:06;14.13;;;7.30;;
5245;SDS011;54412;51.206;6.888;2023-09-30T05:54:32;19.27;;;7.93;;
5245;SDS011;54412;51.206;6.888;2023-09-30T05:56:58;16.53;;;8.47;;
5245;SDS011;54412;51.206;6.888;2023-09-30T05:59:25;10.50;;;8.00;;
5245;SDS011;54412;51.206;6.888;2023-09-30T06:01:53;17.10;;;8.23;;
5245;SDS011;54412;51.206;6.888;2023-09-30T06:04:18;15.33;;;8.60;;
5245;SDS011;54412;51.206;6.888;2023-09-30T06:06:45;13.90;;;7.83;;
5245;SDS011;54412;51.206;6.888;2023-09-30T06:09:11;16.30;;;8.10;;
5245;SDS011;54412;51.206;6.888;2023-09-30T06:11:37;11.50;;;8.53;;
5245;SDS011;54412;51.206;6.888;2023-09-30T06:14:02;14.00;;;8.93;;
5245;SDS011;54412;51.206;6.888;2023-09-30T06:16:31;15.23;;;10.60;;
5245;SDS011;54412;51.206;6.888;2023-09-30T06:18:58;18.50;;;9.50;;
5245;SDS011;54412;51.206;6.888;2023-09-30T06:21:24;24.93;;;11.33;;
5245;SDS011;54412;51.206;6.888;2023-09-30T06:23:53;17.27;;;10.30;;
5245;SDS011;54412;51.206;6.888;2023-09-30T06:26:20;13.27;;;8.97;;
5245;SDS011;54412;51.206;6.888;2023-09-30T06:28:46;21.90;;;10.00;;
5245;SDS011;54412;51.206;6.888;2023-09-30T06:31:13;15.80;;;9.20;;
5245;SDS011;54412;51.206;6.888;2023-09-30T06:33:39;17.20;;;8.53;;
5245;SDS011;54412;51.206;6.888;2023-09-30T06:36:11;22.63;;;9.23;;
5245;SDS011;54412;51.206;6.888;2023-09-30T06:38:41;22.33;;;10.13;;
5245;SDS011;54412;51.206;6.888;2023-09-30T06:41:14;19.07;;;10.23;;
5245;SDS011;54412;51.206;6.888;2023-09-30T06:43:42;17.03;;;9.50;;
5245;SDS011;54412;51.206;6.888;2023-09-30T06:46:08;20.37;;;8.50;;
5245;SDS011;54412;51.206;6.888;2023-09-30T06:48:34;19.47;;;10.10;;
5245;SDS011;54412;51.206;6.888;2023-09-30T06:51:01;20.17;;;10.50;;
5245;SDS011;54412;51.206;6.888;2023-09-30T06:53:27;16.97;;;9.63;;
5245;SDS011;54412;51.206;6.888;2023-09-30T06:55:52;17.30;;;10.20;;
5245;SDS011;54412;51.206;6.888;2023-09-30T06:58:18;16.80;;;9.87;;
5245;SDS011;54412;51.206;6.888;2023-09-30T07:00:49;16.80;;;9.30;;
5245;SDS011;54412;51.206;6.888;2023-09-30T07:03:16;16.97;;;9.10;;
5245;SDS011;54412;51.206;6.888;2023-09-30T07:05:44;17.93;;;10.13;;
5245;SDS011;54412;51.206;6.888;2023-09-30T07:08:10;19.47;;;10.10;;
5245;SDS011;54412;51.206;6.888;2023-09-30T07:10:36;19.00;;;9.83;;
5245;SDS011;54412;51.206;6.888;2023-09-30T07:13:03;16.20;;;10.13;;
5245;SDS011;54412;51.206;6.888;2023-09-30T07:15:29;19.10;;;11.00;;
5245;SDS011;54412;51.206;6.888;2023-09-30T07:17:55;13.50;;;9.13;;
5245;SDS011;54412;51.206;6.888;2023-09-30T07:20:21;22.80;;;10.57;;
5245;SDS011;54412;51.206;6.888;2023-09-30T07:22:47;12.13;;;8.73;;
5245;SDS011;54412;51.206;6.888;2023-09-30T07:25:14;13.57;;;9.50;;
5245;SDS011;54412;51.206;6.888;2023-09-30T07:27:43;15.53;;;10.20;;
5245;SDS011;54412;51.206;6.888;2023-09-30T07:30:13;18.23;;;10.77;;
5245;SDS011;54412;51.206;6.888;2023-09-30T07:32:42;18.87;;;10.67;;
5245;SDS011;54412;51.206;6.888;2023-09-30T07:35:09;22.00;;;9.17;;
5245;SDS011;54412;51.206;6.888;2023-09-30T07:37:37;17.40;;;9.93;;
5245;SDS011;54412;51.206;6.888;2023-09-30T07:40:03;15.80;;;10.23;;
5245;SDS011;54412;51.206;6.888;2023-09-30T07:42:30;16.90;;;9.80;;
5245;SDS011;54412;51.206;6.888;2023-09-30T07:44:55;20.40;;;10.80;;
5245;SDS011;54412;51.206;6.888;2023-09-30T07:47:21;14.57;;;9.40;;
5245;SDS011;54412;51.206;6.888;2023-09-30T07:49:48;15.53;;;9.00;;
5245;SDS011;54412;51.206;6.888;2023-09-30T07:52:13;15.63;;;9.10;;
5245;SDS011;54412;51.206;6.888;2023-09-30T07:54:40;18.40;;;9.30;;
5245;SDS011;54412;51.206;6.888;2023-09-30T07:57:05;24.20;;;10.57;;
5245;SDS011;54412;51.206;6.888;2023-09-30T07:59:31;18.80;;;9.87;;
5245;SDS011;54412;51.206;6.888;2023-09-30T08:01:58;16.93;;;10.23;;
5245;SDS011;54412;51.206;6.888;2023-09-30T08:04:25;19.97;;;10.00;;
5245;SDS011;54412;51.206;6.888;2023-09-30T08:06:50;12.90;;;8.60;;
5245;SDS011;54412;51.206;6.888;2023-09-30T08:09:16;13.20;;;8.30;;
5245;SDS011;54412;51.206;6.888;2023-09-30T08:11:43;16.70;;;10.47;;
5245;SDS011;54412;51.206;6.888;2023-09-30T08:14:09;17.70;;;9.40;;
5245;SDS011;54412;51.206;6.888;2023-09-30T08:16:35;17.23;;;9.27;;
5245;SDS011;54412;51.206;6.888;2023-09-30T08:19:02;14.83;;;8.77;;
5245;SDS011;54412;51.206;6.888;2023-09-30T08:21:29;20.83;;;9.67;;
5245;SDS011;54412;51.206;6.888;2023-09-30T08:23:57;16.17;;;9.80;;
5245;SDS011;54412;51.206;6.888;2023-09-30T08:26:23;12.63;;;8.20;;
5245;SDS011;54412;51.206;6.888;2023-09-30T08:28:49;22.20;;;9.20;;
5245;SDS011;54412;51.206;6.888;2023-09-30T08:31:15;16.57;;;11.17;;
5245;SDS011;54412;51.206;6.888;2023-09-30T08:33:41;16.40;;;10.90;;
5245;SDS011;54412;51.206;6.888;2023-09-30T08:36:09;30.40;;;10.73;;
5245;SDS011;54412;51.206;6.888;2023-09-30T08:38:35;20.20;;;10.67;;
5245;SDS011;54412;51.206;6.888;2023-09-30T08:41:03;21.30;;;11.03;;
5245;SDS011;54412;51.206;6.888;2023-09-30T08:43:29;18.30;;;10.70;;
5245;SDS011;54412;51.206;6.888;2023-09-30T08:45:59;17.50;;;11.63;;
5245;SDS011;54412;51.206;6.888;2023-09-30T08:48:27;19.97;;;11.00;;
5245;SDS011;54412;51.206;6.888;2023-09-30T08:50:58;18.83;;;10.93;;
5245;SDS011;54412;51.206;6.888;2023-09-30T08:53:25;18.60;;;9.70;;
5245;SDS011;54412;51.206;6.888;2023-09-30T08:55:55;16.90;;;10.50;;
5245;SDS011;54412;51.206;6.888;2023-09-30T08:58:24;17.27;;;10.17;;
5245;SDS011;54412;51.206;6.888;2023-09-30T09:00:54;20.33;;;9.83;;
5245;SDS011;54412;51.206;6.888;2023-09-30T09:03:21;16.87;;;9.90;;
5245;SDS011;54412;51.206;6.888;2023-09-30T09:05:54;19.50;;;10.23;;
5245;SDS011;54412;51.206;6.888;2023-09-30T09:08:27;19.83;;;10.13;;
5245;SDS011;54412;51.206;6.888;2023-09-30T09:10:54;14.60;;;9.47;;
5245;SDS011;54412;51.206;6.888;2023-09-30T09:13:22;15.17;;;9.37;;
5245;SDS011;54412;51.206;6.888;2023-09-30T09:15:49;18.50;;;9.83;;
5245;SDS011;54412;51.206;6.888;2023-09-30T09:18:31;15.73;;;9.43;;
5245;SDS011;54412;51.206;6.888;2023-09-30T09:21:14;17.60;;;8.20;;
5245;SDS011;54412;51.206;6.888;2023-09-30T09:23:47;19.43;;;9.40;;
5245;SDS011;54412;51.206;6.888;2023-09-30T09:26:28;18.77;;;9.80;;
5245;SDS011;54412;51.206;6.888;2023-09-30T09:29:00;18.50;;;9.70;;
5245;SDS011;54412;51.206;6.888;2023-09-30T09:31:32;14.23;;;9.10;;
5245;SDS011;54412;51.206;6.888;2023-09-30T09:34:00;11.47;;;7.60;;
5245;SDS011;54412;51.206;6.888;2023-09-30T09:36:41;17.03;;;9.00;;
5245;SDS011;54412;51.206;6.888;2023-09-30T09:39:09;14.33;;;8.07;;
5245;SDS011;54412;51.206;6.888;2023-09-30T09:41:52;16.70;;;7.27;;
5245;SDS011;54412;51.206;6.888;2023-09-30T09:44:21;14.67;;;7.20;;
5245;SDS011;54412;51.206;6.888;2023-09-30T09:46:50;13.37;;;7.80;;
5245;SDS011;54412;51.206;6.888;2023-09-30T09:49:16;13.50;;;7.20;;
5245;SDS011;54412;51.206;6.888;2023-09-30T09:51:43;11.53;;;6.27;;
5245;SDS011;54412;51.206;6.888;2023-09-30T09:54:12;11.87;;;6.67;;
5245;SDS011;54412;51.206;6.888;2023-09-30T09:56:39;12.80;;;7.07;;
5245;SDS011;54412;51.206;6.888;2023-09-30T09:59:06;12.03;;;5.70;;
5245;SDS011;54412;51.206;6.888;2023-09-30T10:01:34;12.33;;;5.90;;
5245;SDS011;54412;51.206;6.888;2023-09-30T10:04:01;22.60;;;5.43;;
5245;SDS011;54412;51.206;6.888;2023-09-30T10:06:27;14.70;;;6.17;;
5245;SDS011;54412;51.206;6.888;2023-09-30T10:08:53;8.73;;;5.10;;
5245;SDS011;54412;51.206;6.888;2023-09-30T10:11:22;7.60;;;4.70;;
5245;SDS011;54412;51.206;6.888;2023-09-30T10:13:52;12.80;;;5.30;;
5245;SDS011;54412;51.206;6.888;2023-09-30T10:21:40;11.53;;;5.97;;
5245;SDS011;54412;51.206;6.888;2023-09-30T10:24:50;9.83;;;4.10;;
5245;SDS011;54412;51.206;6.888;2023-09-30T10:37:45;7.47;;;3.50;;
5245;SDS011;54412;51.206;6.888;2023-09-30T10:40:28;10.43;;;4.47;;
5245;SDS011;54412;51.206;6.888;2023-09-30T10:42:56;7.70;;;4.17;;
5245;SDS011;54412;51.206;6.888;2023-09-30T10:53:50;10.20;;;4.43;;
5245;SDS011;54412;51.206;6.888;2023-09-30T10:56:26;8.30;;;4.17;;
5245;SDS011;54412;51.206;6.888;2023-09-30T10:58:59;7.13;;;4.03;;
5245;SDS011;54412;51.206;6.888;2023-09-30T11:01:31;5.30;;;3.37;;
5245;SDS011;54412;51.206;6.888;2023-09-30T11:04:02;12.70;;;3.70;;
5245;SDS011;54412;51.206;6.888;2023-09-30T11:06:30;11.10;;;3.30;;
5245;SDS011;54412;51.206;6.888;2023-09-30T11:08:57;5.77;;;2.90;;
5245;SDS011;54412;51.206;6.888;2023-09-30T11:16:42;15.77;;;7.53;;
5245;SDS011;54412;51.206;6.888;2023-09-30T11:19:09;52.87;;;20.20;;
5245;SDS011;54412;51.206;6.888;2023-09-30T11:21:36;12.00;;;5.33;;
5245;SDS011;54412;51.206;6.888;2023-09-30T11:24:03;15.43;;;3.43;;
5245;SDS011;54412;51.206;6.888;2023-09-30T11:26:31;7.27;;;3.83;;
5245;SDS011;54412;51.206;6.888;2023-09-30T11:29:04;8.97;;;3.70;;
5245;SDS011;54412;51.206;6.888;2023-09-30T11:31:32;9.90;;;4.67;;
5245;SDS011;54412;51.206;6.888;2023-09-30T11:33:59;8.67;;;3.50;;
5245;SDS011;54412;51.206;6.888;2023-09-30T11:36:29;11.73;;;4.07;;
5245;SDS011;54412;51.206;6.888;2023-09-30T11:38:56;35.47;;;9.37;;
5245;SDS011;54412;51.206;6.888;2023-09-30T11:41:31;20.33;;;7.67;;
5245;SDS011;54412;51.206;6.888;2023-09-30T11:49:27;8.93;;;3.33;;
5245;SDS011;54412;51.206;6.888;2023-09-30T11:51:56;9.60;;;3.13;;
5245;SDS011;54412;51.206;6.888;2023-09-30T11:54:28;19.80;;;8.60;;
5245;SDS011;54412;51.206;6.888;2023-09-30T11:57:04;4.53;;;3.53;;
5245;SDS011;54412;51.206;6.888;2023-09-30T11:59:30;6.97;;;3.83;;
5245;SDS011;54412;51.206;6.888;2023-09-30T12:01:57;8.13;;;3.87;;
5245;SDS011;54412;51.206;6.888;2023-09-30T12:04:24;11.27;;;5.80;;
5245;SDS011;54412;51.206;6.888;2023-09-30T12:06:50;9.87;;;3.73;;
5245;SDS011;54412;51.206;6.888;2023-09-30T12:09:16;5.63;;;3.73;;
5245;SDS011;54412;51.206;6.888;2023-09-30T12:11:47;5.97;;;3.67;;
5245;SDS011;54412;51.206;6.888;2023-09-30T12:14:14;7.30;;;3.33;;
5245;SDS011;54412;51.206;6.888;2023-09-30T12:16:40;11.33;;;3.13;;
5245;SDS011;54412;51.206;6.888;2023-09-30T12:19:06;13.57;;;3.20;;
5245;SDS011;54412;51.206;6.888;2023-09-30T12:21:33;8.30;;;3.70;;
5245;SDS011;54412;51.206;6.888;2023-09-30T12:24:01;7.43;;;3.60;;
5245;SDS011;54412;51.206;6.888;2023-09-30T12:26:28;8.03;;;3.77;;
5245;SDS011;54412;51.206;6.888;2023-09-30T12:28:55;6.57;;;3.50;;
5245;SDS011;54412;51.206;6.888;2023-09-30T12:31:22;7.77;;;3.60;;
5245;SDS011;54412;51.206;6.888;2023-09-30T12:33:48;6.90;;;3.17;;
5245;SDS011;54412;51.206;6.888;2023-09-30T12:36:16;11.43;;;3.67;;
5245;SDS011;54412;51.206;6.888;2023-09-30T12:41:50;8.53;;;3.70;;
5245;SDS011;54412;51.206;6.888;2023-09-30T12:44:16;14.60;;;5.90;;
5245;SDS011;54412;51.206;6.888;2023-09-30T12:46:42;7.10;;;4.17;;
5245;SDS011;54412;51.206;6.888;2023-09-30T12:49:08;5.13;;;3.27;;
5245;SDS011;54412;51.206;6.888;2023-09-30T12:51:34;8.40;;;3.97;;
5245;SDS011;54412;51.206;6.888;2023-09-30T12:54:01;7.63;;;3.70;;
5245;SDS011;54412;51.206;6.888;2023-09-30T12:56:28;4.83;;;2.77;;
5245;SDS011;54412;51.206;6.888;2023-09-30T12:58:57;8.50;;;3.00;;
5245;SDS011;54412;51.206;6.888;2023-09-30T13:01:23;5.53;;;2.57;;
5245;SDS011;54412;51.206;6.888;2023-09-30T13:03:50;7.10;;;3.00;;
5245;SDS011;54412;51.206;6.888;2023-09-30T13:06:16;9.80;;;3.80;;
5245;SDS011;54412;51.206;6.888;2023-09-30T13:08:44;9.87;;;3.60;;
5245;SDS011;54412;51.206;6.888;2023-09-30T13:11:09;4.17;;;2.60;;
5245;SDS011;54412;51.206;6.888;2023-09-30T13:13:36;4.70;;;3.00;;
5245;SDS011;54412;51.206;6.888;2023-09-30T13:16:03;6.57;;;3.03;;
5245;SDS011;54412;51.206;6.888;2023-09-30T13:18:34;5.37;;;2.20;;
5245;SDS011;54412;51.206;6.888;2023-09-30T13:21:01;11.60;;;3.27;;
5245;SDS011;54412;51.206;6.888;2023-09-30T13:23:30;8.93;;;2.57;;
5245;SDS011;54412;51.206;6.888;2023-09-30T13:25:56;7.30;;;2.53;;
5245;SDS011;54412;51.206;6.888;2023-09-30T13:28:22;11.50;;;2.83;;
5245;SDS011;54412;51.206;6.888;2023-09-30T13:30:48;6.97;;;2.80;;
5245;SDS011;54412;51.206;6.888;2023-09-30T13:33:13;6.97;;;3.50;;
5245;SDS011;54412;51.206;6.888;2023-09-30T13:35:39;3.97;;;2.47;;
5245;SDS011;54412;51.206;6.888;2023-09-30T13:38:05;6.77;;;2.50;;
5245;SDS011;54412;51.206;6.888;2023-09-30T13:40:30;8.77;;;2.93;;
5245;SDS011;54412;51.206;6.888;2023-09-30T13:42:56;13.00;;;2.80;;
5245;SDS011;54412;51.206;6.888;2023-09-30T13:45:23;5.27;;;2.97;;
5245;SDS011;54412;51.206;6.888;2023-09-30T13:47:49;5.50;;;2.67;;
5245;SDS011;54412;51.206;6.888;2023-09-30T13:50:15;8.30;;;3.20;;
5245;SDS011;54412;51.206;6.888;2023-09-30T13:52:41;3.47;;;2.20;;
5245;SDS011;54412;51.206;6.888;2023-09-30T13:55:07;7.03;;;2.70;;
5245;SDS011;54412;51.206;6.888;2023-09-30T13:57:33;3.73;;;2.67;;
5245;SDS011;54412;51.206;6.888;2023-09-30T14:00:00;7.23;;;2.53;;
5245;SDS011;54412;51.206;6.888;2023-09-30T14:02:29;7.83;;;3.03;;
5245;SDS011;54412;51.206;6.888;2023-09-30T14:04:54;8.60;;;2.50;;
5245;SDS011;54412;51.206;6.888;2023-09-30T14:07:20;4.40;;;2.57;;
5245;SDS011;54412;51.206;6.888;2023-09-30T14:09:46;7.70;;;2.20;;
5245;SDS011;54412;51.206;6.888;2023-09-30T14:12:12;5.30;;;2.40;;
5245;SDS011;54412;51.206;6.888;2023-09-30T14:14:38;4.80;;;2.70;;
5245;SDS011;54412;51.206;6.888;2023-09-30T14:17:04;2.83;;;2.13;;
5245;SDS011;54412;51.206;6.888;2023-09-30T14:19:34;4.63;;;2.40;;
5245;SDS011;54412;51.206;6.888;2023-09-30T14:22:01;7.83;;;2.80;;
5245;SDS011;54412;51.206;6.888;2023-09-30T14:24:29;4.80;;;2.30;;
5245;SDS011;54412;51.206;6.888;2023-09-30T14:26:58;3.57;;;2.40;;
5245;SDS011;54412;51.206;6.888;2023-09-30T14:29:24;3.30;;;1.70;;
5245;SDS011;54412;51.206;6.888;2023-09-30T14:31:49;4.80;;;2.23;;
5245;SDS011;54412;51.206;6.888;2023-09-30T14:34:16;6.63;;;2.57;;
5245;SDS011;54412;51.206;6.888;2023-09-30T14:36:42;5.30;;;2.67;;
5245;SDS011;54412;51.206;6.888;2023-09-30T14:39:09;5.50;;;2.10;;
5245;SDS011;54412;51.206;6.888;2023-09-30T14:41:35;8.73;;;2.80;;
5245;SDS011;54412;51.206;6.888;2023-09-30T14:44:01;3.73;;;2.63;;
5245;SDS011;54412;51.206;6.888;2023-09-30T14:46:32;3.60;;;2.30;;
5245;SDS011;54412;51.206;6.888;2023-09-30T14:49:02;2.87;;;2.37;;
5245;SDS011;54412;51.206;6.888;2023-09-30T14:51:27;5.00;;;2.37;;
5245;SDS011;54412;51.206;6.888;2023-09-30T14:53:53;6.77;;;2.40;;
5245;SDS011;54412;51.206;6.888;2023-09-30T14:56:19;7.67;;;2.43;;
5245;SDS011;54412;51.206;6.888;2023-09-30T14:58:45;4.07;;;2.67;;
5245;SDS011;54412;51.206;6.888;2023-09-30T15:01:11;3.67;;;2.60;;
5245;SDS011;54412;51.206;6.888;2023-09-30T15:03:37;4.73;;;2.20;;
5245;SDS011;54412;51.206;6.888;2023-09-30T15:06:04;5.93;;;2.67;;
5245;SDS011;54412;51.206;6.888;2023-09-30T15:08:31;4.50;;;2.87;;
5245;SDS011;54412;51.206;6.888;2023-09-30T15:10:58;6.73;;;3.07;;
5245;SDS011;54412;51.206;6.888;2023-09-30T15:13:25;3.87;;;2.23;;
5245;SDS011;54412;51.206;6.888;2023-09-30T15:15:51;6.10;;;2.90;;
5245;SDS011;54412;51.206;6.888;2023-09-30T15:18:18;5.27;;;2.40;;
5245;SDS011;54412;51.206;6.888;2023-09-30T15:20:43;5.23;;;3.00;;
5245;SDS011;54412;51.206;6.888;2023-09-30T15:23:09;6.80;;;2.93;;
5245;SDS011;54412;51.206;6.888;2023-09-30T15:25:42;4.43;;;2.30;;
5245;SDS011;54412;51.206;6.888;2023-09-30T15:28:09;5.67;;;2.73;;
5245;SDS011;54412;51.206;6.888;2023-09-30T15:30:35;6.80;;;2.40;;